createdAt,value
2017-04-17T00:00:17.104Z,0
2017-04-17T00:01:28.130Z,0
2017-04-17T00:02:39.157Z,0
2017-04-17T00:03:50.203Z,0
2017-04-17T00:05:01.438Z,0
2017-04-17T00:06:12.468Z,0
2017-04-17T00:07:23.693Z,0
2017-04-17T00:08:34.714Z,0
2017-04-17T00:09:45.756Z,0
2017-04-17T00:10:56.914Z,0
2017-04-17T00:12:08.327Z,0
2017-04-17T00:13:19.352Z,0
2017-04-17T00:14:30.577Z,0
2017-04-17T00:15:41.593Z,0
2017-04-17T00:16:52.617Z,0
2017-04-17T00:18:03.641Z,0
2017-04-17T00:19:14.710Z,0
2017-04-17T00:20:25.743Z,0
2017-04-17T00:21:36.773Z,0
2017-04-17T00:22:47.811Z,0
2017-04-17T00:23:58.832Z,0
2017-04-17T00:25:09.860Z,0
2017-04-17T00:26:20.886Z,0
2017-04-17T00:27:32.112Z,0
2017-04-17T00:28:43.137Z,0
2017-04-17T00:29:54.624Z,0
2017-04-17T00:31:05.656Z,0
2017-04-17T00:32:16.681Z,0
2017-04-17T00:33:27.708Z,0
2017-04-17T00:34:38.746Z,0
2017-04-17T00:35:49.775Z,0
2017-04-17T00:37:00.806Z,0
2017-04-17T00:38:11.847Z,0
2017-04-17T00:39:22.877Z,0
2017-04-17T00:40:34.155Z,0
2017-04-17T00:41:45.188Z,0
2017-04-17T00:42:56.615Z,0
2017-04-17T00:44:07.632Z,0
2017-04-17T00:45:18.661Z,0
2017-04-17T00:46:29.683Z,0
2017-04-17T00:47:40.718Z,0
2017-04-17T00:48:52.167Z,0
2017-04-17T00:50:03.195Z,0
2017-04-17T00:51:14.426Z,0
2017-04-17T00:52:25.457Z,0
2017-04-17T00:53:36.474Z,0
2017-04-17T00:54:47.495Z,0
2017-04-17T00:55:58.517Z,0
2017-04-17T00:57:09.537Z,0
2017-04-17T00:58:20.565Z,0
2017-04-17T00:59:31.796Z,0
2017-04-17T01:00:43.015Z,0
2017-04-17T01:01:54.091Z,0
2017-04-17T01:03:05.115Z,0
2017-04-17T01:04:16.155Z,0
2017-04-17T01:05:27.180Z,0
2017-04-17T01:06:38.210Z,0
2017-04-17T01:07:49.247Z,0
2017-04-17T01:09:00.274Z,0
2017-04-17T01:10:11.294Z,0
2017-04-17T01:11:22.321Z,0
2017-04-17T01:12:33.393Z,0
2017-04-17T01:13:44.629Z,0
2017-04-17T01:14:55.669Z,0
2017-04-17T01:16:06.705Z,0
2017-04-17T01:17:17.736Z,0
2017-04-17T01:18:28.771Z,0
2017-04-17T01:19:39.799Z,0
2017-04-17T01:20:50.826Z,0
2017-04-17T01:22:02.120Z,0
2017-04-17T01:23:13.198Z,0
2017-04-17T01:24:24.238Z,0
2017-04-17T01:25:35.460Z,0
2017-04-17T01:26:46.496Z,0
2017-04-17T01:27:57.527Z,0
2017-04-17T01:29:08.559Z,0
2017-04-17T01:30:19.586Z,0
2017-04-17T01:31:30.821Z,0
2017-04-17T01:32:41.853Z,0
2017-04-17T01:33:52.883Z,0
2017-04-17T01:35:03.947Z,0
2017-04-17T01:36:14.981Z,0
2017-04-17T01:37:26.002Z,0
2017-04-17T01:38:37.040Z,0
2017-04-17T01:39:48.073Z,0
2017-04-17T01:40:59.298Z,0
2017-04-17T01:42:10.314Z,0
2017-04-17T01:43:21.436Z,0
2017-04-17T01:44:32.517Z,0
2017-04-17T01:45:43.538Z,0
2017-04-17T01:46:54.567Z,0
2017-04-17T01:48:05.592Z,0
2017-04-17T01:49:16.825Z,0
2017-04-17T01:50:27.842Z,0
2017-04-17T01:51:38.895Z,0
2017-04-17T01:52:50.128Z,0
2017-04-17T01:54:01.156Z,0
2017-04-17T01:55:12.223Z,0
2017-04-17T01:56:23.273Z,0
2017-04-17T01:57:34.281Z,0
2017-04-17T01:58:45.510Z,0
2017-04-17T01:59:56.741Z,0
2017-04-17T02:01:07.765Z,0
2017-04-17T02:02:18.786Z,0
2017-04-17T02:03:29.830Z,0
2017-04-17T02:04:40.848Z,0
2017-04-17T02:05:52.258Z,0
2017-04-17T02:07:03.558Z,0
2017-04-17T02:08:14.579Z,0
2017-04-17T02:09:25.610Z,0
2017-04-17T02:10:36.647Z,0
2017-04-17T02:11:47.897Z,0
2017-04-17T02:12:58.926Z,0
2017-04-17T02:14:09.952Z,0
2017-04-17T02:15:21.186Z,0
2017-04-17T02:16:32.417Z,0
2017-04-17T02:17:43.458Z,0
2017-04-17T02:18:54.688Z,0
2017-04-17T02:20:05.712Z,0
2017-04-17T02:21:16.735Z,0
2017-04-17T02:22:27.973Z,0
2017-04-17T02:23:39.000Z,0
2017-04-17T02:24:50.015Z,0
2017-04-17T02:26:01.047Z,0
2017-04-17T02:27:12.119Z,0
2017-04-17T02:28:23.136Z,0
2017-04-17T02:29:34.530Z,0
2017-04-17T02:30:45.553Z,0
2017-04-17T02:31:56.585Z,0
2017-04-17T02:33:07.609Z,0
2017-04-17T02:34:18.829Z,0
2017-04-17T02:35:29.855Z,0
2017-04-17T02:36:41.082Z,0
2017-04-17T02:37:52.149Z,0
2017-04-17T02:39:03.373Z,0
2017-04-17T02:40:14.396Z,0
2017-04-17T02:41:25.823Z,0
2017-04-17T02:42:36.848Z,0
2017-04-17T02:43:47.888Z,0
2017-04-17T02:44:58.917Z,0
2017-04-17T02:46:10.144Z,0
2017-04-17T02:47:21.380Z,0
2017-04-17T02:48:32.671Z,0
2017-04-17T02:49:44.089Z,0
2017-04-17T02:50:55.316Z,0
2017-04-17T02:52:06.544Z,0
2017-04-17T02:53:17.577Z,0
2017-04-17T02:54:28.803Z,0
2017-04-17T02:55:39.838Z,0
2017-04-17T02:56:51.060Z,0
2017-04-17T02:58:02.088Z,0
2017-04-17T02:59:13.119Z,0
2017-04-17T03:00:24.147Z,0
2017-04-17T03:01:35.166Z,0
2017-04-17T03:02:46.433Z,0
2017-04-17T03:03:57.662Z,0
2017-04-17T03:05:08.736Z,0
2017-04-17T03:06:19.760Z,0
2017-04-17T03:07:30.987Z,0
2017-04-17T03:08:42.025Z,0
2017-04-17T03:09:53.264Z,0
2017-04-17T03:11:04.297Z,0
2017-04-17T03:12:15.343Z,0
2017-04-17T03:13:26.725Z,0
2017-04-17T03:14:37.999Z,0
2017-04-17T03:15:49.032Z,0
2017-04-17T03:17:00.062Z,0
2017-04-17T03:18:11.087Z,0
2017-04-17T03:19:22.125Z,0
2017-04-17T03:20:33.198Z,0
2017-04-17T03:21:44.228Z,0
2017-04-17T03:22:55.249Z,0
2017-04-17T03:24:06.278Z,0
2017-04-17T03:25:17.357Z,0
2017-04-17T03:26:28.389Z,0
2017-04-17T03:27:39.410Z,0
2017-04-17T03:28:50.426Z,0
2017-04-17T03:30:01.860Z,0
2017-04-17T03:31:13.096Z,0
2017-04-17T03:32:24.136Z,0
2017-04-17T03:33:35.373Z,0
2017-04-17T03:34:46.523Z,0
2017-04-17T03:35:58.057Z,0
2017-04-17T03:37:09.252Z,0
2017-04-17T03:38:20.276Z,0
2017-04-17T03:39:31.504Z,0
2017-04-17T03:40:42.543Z,0
2017-04-17T03:41:53.765Z,0
2017-04-17T03:43:04.998Z,0
2017-04-17T03:44:16.030Z,0
2017-04-17T03:45:27.039Z,0
2017-04-17T03:46:38.120Z,0
2017-04-17T03:47:49.146Z,0
2017-04-17T03:49:00.172Z,0
2017-04-17T03:50:11.602Z,0
2017-04-17T03:51:22.830Z,0
2017-04-17T03:52:33.853Z,0
2017-04-17T03:53:44.885Z,0
2017-04-17T03:54:55.921Z,0
2017-04-17T03:56:06.941Z,0
2017-04-17T03:57:18.218Z,0
2017-04-17T03:58:29.237Z,4
2017-04-17T03:59:40.343Z,0
2017-04-17T04:00:51.369Z,4
2017-04-17T04:02:02.387Z,0
2017-04-17T04:03:13.405Z,4
2017-04-17T04:04:24.434Z,4
2017-04-17T04:05:35.460Z,4
2017-04-17T04:06:46.498Z,8
2017-04-17T04:07:57.569Z,8
2017-04-17T04:09:08.593Z,12
2017-04-17T04:10:19.825Z,12
2017-04-17T04:11:30.891Z,12
2017-04-17T04:12:41.915Z,12
2017-04-17T04:13:52.948Z,16
2017-04-17T04:15:03.989Z,16
2017-04-17T04:16:15.037Z,16
2017-04-17T04:17:26.064Z,20
2017-04-17T04:18:37.144Z,24
2017-04-17T04:19:48.177Z,28
2017-04-17T04:20:59.235Z,32
2017-04-17T04:22:10.474Z,36
2017-04-17T04:23:21.508Z,44
2017-04-17T04:24:32.533Z,40
2017-04-17T04:25:43.583Z,44
2017-04-17T04:26:54.608Z,48
2017-04-17T04:28:05.638Z,48
2017-04-17T04:29:16.918Z,52
2017-04-17T04:30:27.936Z,56
2017-04-17T04:31:38.963Z,60
2017-04-17T04:32:49.992Z,64
2017-04-17T04:34:01.011Z,72
2017-04-17T04:35:12.038Z,80
2017-04-17T04:36:23.071Z,96
2017-04-17T04:37:34.317Z,108
2017-04-17T04:38:45.357Z,132
2017-04-17T04:39:56.627Z,156
2017-04-17T04:41:07.640Z,168
2017-04-17T04:42:18.665Z,168
2017-04-17T04:43:29.893Z,164
2017-04-17T04:44:40.919Z,176
2017-04-17T04:45:51.976Z,184
2017-04-17T04:47:02.996Z,188
2017-04-17T04:48:14.112Z,188
2017-04-17T04:49:25.350Z,192
2017-04-17T04:50:36.420Z,208
2017-04-17T04:51:47.638Z,228
2017-04-17T04:52:58.671Z,264
2017-04-17T04:54:09.898Z,304
2017-04-17T04:55:20.917Z,356
2017-04-17T04:56:31.938Z,408
2017-04-17T04:57:43.173Z,464
2017-04-17T04:58:54.209Z,524
2017-04-17T05:00:05.249Z,576
2017-04-17T05:01:16.277Z,620
2017-04-17T05:02:27.511Z,652
2017-04-17T05:03:38.540Z,688
2017-04-17T05:04:49.561Z,736
2017-04-17T05:06:00.788Z,780
2017-04-17T05:07:11.814Z,804
2017-04-17T05:08:22.830Z,812
2017-04-17T05:09:33.857Z,828
2017-04-17T05:10:44.907Z,876
2017-04-17T05:11:56.231Z,956
2017-04-17T05:13:07.528Z,1032
2017-04-17T05:14:18.620Z,1072
2017-04-17T05:15:29.646Z,1116
2017-04-17T05:16:40.673Z,1148
2017-04-17T05:17:51.735Z,1108
2017-04-17T05:19:02.769Z,984
2017-04-17T05:20:13.798Z,836
2017-04-17T05:21:24.825Z,728
2017-04-17T05:22:36.091Z,648
2017-04-17T05:23:47.567Z,572
2017-04-17T05:24:58.587Z,540
2017-04-17T05:26:09.614Z,540
2017-04-17T05:27:20.642Z,556
2017-04-17T05:28:31.680Z,588
2017-04-17T05:29:42.714Z,636
2017-04-17T05:30:53.739Z,672
2017-04-17T05:32:04.757Z,700
2017-04-17T05:33:16.045Z,732
2017-04-17T05:34:27.074Z,748
2017-04-17T05:35:38.170Z,728
2017-04-17T05:36:49.396Z,700
2017-04-17T05:38:00.702Z,740
2017-04-17T05:39:11.784Z,816
2017-04-17T05:40:22.818Z,888
2017-04-17T05:41:33.841Z,916
2017-04-17T05:42:44.869Z,1020
2017-04-17T05:43:55.900Z,1272
2017-04-17T05:45:06.937Z,1700
2017-04-17T05:46:17.980Z,2032
2017-04-17T05:47:28.997Z,2672
2017-04-17T05:48:40.031Z,3900
2017-04-17T05:49:51.052Z,4884
2017-04-17T05:51:02.136Z,5248
2017-04-17T05:52:13.163Z,5712
2017-04-17T05:53:24.195Z,5916
2017-04-17T05:54:35.216Z,6108
2017-04-17T05:55:46.247Z,7744
2017-04-17T05:56:57.275Z,7888
2017-04-17T05:58:08.499Z,8488
2017-04-17T05:59:19.539Z,9856
2017-04-17T06:00:30.973Z,8120
2017-04-17T06:01:42.199Z,7808
2017-04-17T06:02:53.218Z,6744
2017-04-17T06:04:04.240Z,6248
2017-04-17T06:05:15.262Z,4760
2017-04-17T06:06:26.285Z,3812
2017-04-17T06:07:37.307Z,3964
2017-04-17T06:08:48.344Z,4300
2017-04-17T06:09:59.584Z,4448
2017-04-17T06:11:11.266Z,4192
2017-04-17T06:12:22.488Z,3760
2017-04-17T06:13:33.972Z,3336
2017-04-17T06:14:44.990Z,3092
2017-04-17T06:15:56.024Z,3052
2017-04-17T06:17:07.453Z,3132
2017-04-17T06:18:18.879Z,2948
2017-04-17T06:19:29.905Z,2816
2017-04-17T06:20:40.951Z,2784
2017-04-17T06:21:52.052Z,2876
2017-04-17T06:23:03.073Z,3276
2017-04-17T06:24:14.279Z,4000
2017-04-17T06:25:25.304Z,4588
2017-04-17T06:26:36.550Z,5040
2017-04-17T06:27:47.575Z,5740
2017-04-17T06:28:58.610Z,6264
2017-04-17T06:30:09.646Z,6728
2017-04-17T06:31:20.665Z,6592
2017-04-17T06:32:31.751Z,5648
2017-04-17T06:33:42.978Z,4640
2017-04-17T06:34:54.008Z,4200
2017-04-17T06:36:05.031Z,4416
2017-04-17T06:37:16.055Z,5080
2017-04-17T06:38:27.081Z,5508
2017-04-17T06:39:38.305Z,5496
2017-04-17T06:40:49.330Z,5716
2017-04-17T06:42:00.347Z,6088
2017-04-17T06:43:11.440Z,6936
2017-04-17T06:44:22.470Z,7804
2017-04-17T06:45:33.501Z,8696
2017-04-17T06:46:44.533Z,11940
2017-04-17T06:47:55.559Z,27328
2017-04-17T06:49:06.709Z,16896
2017-04-17T06:50:17.741Z,51936
2017-04-17T06:51:28.762Z,15104
2017-04-17T06:52:39.789Z,36960
2017-04-17T06:53:50.877Z,17408
2017-04-17T06:55:01.903Z,12752
2017-04-17T06:56:12.931Z,10424
2017-04-17T06:57:23.957Z,11284
2017-04-17T06:58:34.977Z,11320
2017-04-17T06:59:46.200Z,10224
2017-04-17T07:00:57.248Z,8784
2017-04-17T07:02:08.285Z,8300
2017-04-17T07:03:19.317Z,8056
2017-04-17T07:04:30.550Z,5972
2017-04-17T07:05:41.577Z,7572
2017-04-17T07:06:52.611Z,11720
2017-04-17T07:08:03.652Z,8188
2017-04-17T07:09:14.689Z,6036
2017-04-17T07:10:25.729Z,5276
2017-04-17T07:11:36.759Z,3696
2017-04-17T07:12:47.805Z,3276
2017-04-17T07:13:59.016Z,4204
2017-04-17T07:15:10.299Z,12324
2017-04-17T07:16:21.323Z,10032
2017-04-17T07:17:32.356Z,7872
2017-04-17T07:18:43.602Z,20992
2017-04-17T07:19:54.834Z,8296
2017-04-17T07:21:05.877Z,10464
2017-04-17T07:22:16.902Z,6412
2017-04-17T07:23:27.970Z,5188
2017-04-17T07:24:39.217Z,4948
2017-04-17T07:25:50.297Z,5236
2017-04-17T07:27:01.514Z,3940
2017-04-17T07:28:12.541Z,3820
2017-04-17T07:29:23.588Z,4080
2017-04-17T07:30:34.626Z,4400
2017-04-17T07:31:45.875Z,3900
2017-04-17T07:32:56.906Z,3860
2017-04-17T07:34:07.930Z,3556
2017-04-17T07:35:18.954Z,3476
2017-04-17T07:36:30.038Z,3308
2017-04-17T07:37:41.083Z,3404
2017-04-17T07:38:52.109Z,3424
2017-04-17T07:40:03.184Z,4000
2017-04-17T07:41:14.274Z,6480
2017-04-17T07:42:25.316Z,7596
2017-04-17T07:43:36.356Z,8152
2017-04-17T07:44:47.387Z,10464
2017-04-17T07:45:58.423Z,13804
2017-04-17T07:47:09.507Z,9404
2017-04-17T07:48:20.728Z,8484
2017-04-17T07:49:31.758Z,18336
2017-04-17T07:50:42.980Z,74208
2017-04-17T07:51:53.998Z,77184
2017-04-17T07:53:05.040Z,78080
2017-04-17T07:54:16.283Z,77888
2017-04-17T07:55:27.313Z,78464
2017-04-17T07:56:38.338Z,76576
2017-04-17T07:57:49.426Z,79136
2017-04-17T07:59:00.470Z,84192
2017-04-17T08:00:11.513Z,82528
2017-04-17T08:01:22.558Z,33760
2017-04-17T08:02:33.744Z,32704
2017-04-17T08:03:45.118Z,80512
2017-04-17T08:04:56.372Z,76544
2017-04-17T08:06:07.416Z,11960
2017-04-17T08:07:18.450Z,10956
2017-04-17T08:08:29.542Z,10864
2017-04-17T08:09:40.774Z,11244
2017-04-17T08:10:52.003Z,12004
2017-04-17T08:12:03.044Z,13068
2017-04-17T08:13:14.069Z,14980
2017-04-17T08:14:25.307Z,12092
2017-04-17T08:15:36.352Z,10848
2017-04-17T08:16:47.385Z,10768
2017-04-17T08:17:58.653Z,10616
2017-04-17T08:19:09.739Z,9740
2017-04-17T08:20:20.792Z,11332
2017-04-17T08:21:31.820Z,10984
2017-04-17T08:22:42.852Z,10228
2017-04-17T08:23:53.893Z,9812
2017-04-17T08:25:04.924Z,10484
2017-04-17T08:26:15.988Z,12440
2017-04-17T08:27:27.249Z,62400
2017-04-17T08:28:38.292Z,9908
2017-04-17T08:29:49.373Z,9388
2017-04-17T08:31:00.408Z,9872
2017-04-17T08:32:11.433Z,10988
2017-04-17T08:33:22.468Z,11356
2017-04-17T08:34:33.693Z,16000
2017-04-17T08:35:44.743Z,14480
2017-04-17T08:36:55.778Z,13344
2017-04-17T08:38:06.814Z,13100
2017-04-17T08:39:17.842Z,11652
2017-04-17T08:40:29.084Z,8240
2017-04-17T08:41:40.164Z,7532
2017-04-17T08:42:51.201Z,11532
2017-04-17T08:44:02.239Z,81824
2017-04-17T08:45:13.268Z,84224
2017-04-17T08:46:24.347Z,81984
2017-04-17T08:47:35.371Z,28736
2017-04-17T08:48:46.420Z,14300
2017-04-17T08:49:57.662Z,13720
2017-04-17T08:51:08.751Z,11504
2017-04-17T08:52:19.780Z,11724
2017-04-17T08:53:30.876Z,12940
2017-04-17T08:54:41.945Z,59424
2017-04-17T08:55:52.986Z,78112
2017-04-17T08:57:04.026Z,22272
2017-04-17T08:58:15.089Z,12840
2017-04-17T08:59:26.135Z,35072
2017-04-17T09:00:37.185Z,49024
2017-04-17T09:01:48.468Z,77312
2017-04-17T09:02:59.507Z,74176
2017-04-17T09:04:10.546Z,21152
2017-04-17T09:05:21.610Z,75264
2017-04-17T09:06:32.639Z,15432
2017-04-17T09:07:43.881Z,11856
2017-04-17T09:08:54.934Z,10068
2017-04-17T09:10:05.975Z,10168
2017-04-17T09:11:17.011Z,12628
2017-04-17T09:12:28.317Z,71104
2017-04-17T09:13:39.376Z,19136
2017-04-17T09:14:50.418Z,31136
2017-04-17T09:16:01.474Z,18368
2017-04-17T09:17:12.907Z,26784
2017-04-17T09:18:23.937Z,16512
2017-04-17T09:19:34.972Z,9992
2017-04-17T09:20:46.017Z,9456
2017-04-17T09:21:57.053Z,9420
2017-04-17T09:23:08.343Z,8964
2017-04-17T09:24:19.390Z,8516
2017-04-17T09:25:30.431Z,8512
2017-04-17T09:26:41.469Z,9204
2017-04-17T09:27:52.518Z,9580
2017-04-17T09:29:03.752Z,10108
2017-04-17T09:30:15.037Z,10176
2017-04-17T09:31:26.078Z,9636
2017-04-17T09:32:37.115Z,10632
2017-04-17T09:33:48.406Z,16272
2017-04-17T09:34:59.444Z,53056
2017-04-17T09:36:10.485Z,74912
2017-04-17T09:37:21.530Z,72800
2017-04-17T09:38:32.572Z,70560
2017-04-17T09:39:43.602Z,68608
2017-04-17T09:40:54.639Z,68064
2017-04-17T09:42:05.687Z,12048
2017-04-17T09:43:16.740Z,73248
2017-04-17T09:44:28.031Z,47456
2017-04-17T09:45:39.268Z,13608
2017-04-17T09:46:50.633Z,73824
2017-04-17T09:48:01.837Z,30048
2017-04-17T09:49:12.870Z,27520
2017-04-17T09:50:23.910Z,13524
2017-04-17T09:51:34.953Z,12252
2017-04-17T09:52:45.997Z,17344
2017-04-17T09:53:57.035Z,13432
2017-04-17T09:55:08.277Z,18912
2017-04-17T09:56:19.324Z,23360
2017-04-17T09:57:30.375Z,12752
2017-04-17T09:58:41.406Z,10716
2017-04-17T09:59:52.445Z,9308
2017-04-17T10:01:03.485Z,8912
2017-04-17T10:02:14.527Z,9104
2017-04-17T10:03:25.564Z,66912
2017-04-17T10:04:36.820Z,67840
2017-04-17T10:05:47.860Z,69600
2017-04-17T10:06:58.909Z,68320
2017-04-17T10:08:09.958Z,67776
2017-04-17T10:09:20.998Z,65312
2017-04-17T10:10:32.280Z,66240
2017-04-17T10:11:43.476Z,13452
2017-04-17T10:12:54.519Z,10328
2017-04-17T10:14:05.682Z,9720
2017-04-17T10:15:16.770Z,9304
2017-04-17T10:16:28.013Z,9692
2017-04-17T10:17:39.073Z,10708
2017-04-17T10:18:50.122Z,12820
2017-04-17T10:20:01.163Z,14124
2017-04-17T10:21:12.452Z,12288
2017-04-17T10:22:23.472Z,9392
2017-04-17T10:23:34.718Z,8832
2017-04-17T10:24:45.761Z,10128
2017-04-17T10:25:56.994Z,60384
2017-04-17T10:27:08.237Z,12836
2017-04-17T10:28:19.271Z,11612
2017-04-17T10:29:30.306Z,10456
2017-04-17T10:30:41.338Z,10060
2017-04-17T10:31:52.429Z,12040
2017-04-17T10:33:03.463Z,14676
2017-04-17T10:34:14.716Z,13040
2017-04-17T10:35:25.960Z,56992
2017-04-17T10:36:36.994Z,53664
2017-04-17T10:37:48.027Z,50048
2017-04-17T10:38:59.185Z,49632
2017-04-17T10:40:10.241Z,50016
2017-04-17T10:41:21.277Z,50624
2017-04-17T10:42:32.577Z,49376
2017-04-17T10:43:43.611Z,50784
2017-04-17T10:44:54.844Z,53216
2017-04-17T10:46:06.086Z,57792
2017-04-17T10:47:17.327Z,66496
2017-04-17T10:48:28.381Z,29600
2017-04-17T10:49:39.434Z,20992
2017-04-17T10:50:50.490Z,74144
2017-04-17T10:52:01.525Z,48000
2017-04-17T10:53:12.819Z,27296
2017-04-17T10:54:23.886Z,36704
2017-04-17T10:55:35.128Z,24704
2017-04-17T10:56:46.171Z,12944
2017-04-17T10:57:57.227Z,23488
2017-04-17T10:59:08.287Z,22176
2017-04-17T11:00:19.740Z,23424
2017-04-17T11:01:30.785Z,25440
2017-04-17T11:02:41.923Z,25920
2017-04-17T11:03:53.026Z,26528
2017-04-17T11:05:04.197Z,26624
2017-04-17T11:06:15.330Z,28928
2017-04-17T11:07:26.666Z,31264
2017-04-17T11:08:37.814Z,13456
2017-04-17T11:09:48.869Z,23872
2017-04-17T11:10:59.910Z,13940
2017-04-17T11:12:10.955Z,37184
2017-04-17T11:13:22.008Z,15008
2017-04-17T11:14:33.101Z,12800
2017-04-17T11:15:44.353Z,11488
2017-04-17T11:16:55.404Z,9668
2017-04-17T11:18:06.447Z,10368
2017-04-17T11:19:17.900Z,9236
2017-04-17T11:20:28.951Z,7992
2017-04-17T11:21:39.986Z,7120
2017-04-17T11:22:51.018Z,6172
2017-04-17T11:24:02.058Z,5268
2017-04-17T11:25:13.143Z,4532
2017-04-17T11:26:24.582Z,4072
2017-04-17T11:27:35.621Z,3808
2017-04-17T11:28:46.678Z,3636
2017-04-17T11:29:57.923Z,3496
2017-04-17T11:31:09.054Z,3400
2017-04-17T11:32:20.087Z,3380
2017-04-17T11:33:31.326Z,3428
2017-04-17T11:34:42.376Z,3588
2017-04-17T11:35:53.471Z,4040
2017-04-17T11:37:04.511Z,4820
2017-04-17T11:38:15.756Z,6404
2017-04-17T11:39:26.806Z,9908
2017-04-17T11:40:37.845Z,10812
2017-04-17T11:41:48.890Z,12904
2017-04-17T11:42:59.925Z,12520
2017-04-17T11:44:10.962Z,12756
2017-04-17T11:45:22.010Z,11940
2017-04-17T11:46:33.097Z,11516
2017-04-17T11:47:44.126Z,11284
2017-04-17T11:48:55.169Z,10852
2017-04-17T11:50:06.221Z,11096
2017-04-17T11:51:17.447Z,10816
2017-04-17T11:52:28.478Z,10660
2017-04-17T11:53:39.728Z,10492
2017-04-17T11:54:50.773Z,10264
2017-04-17T11:56:01.807Z,9860
2017-04-17T11:57:12.843Z,9196
2017-04-17T11:58:24.064Z,8652
2017-04-17T11:59:35.383Z,7668
2017-04-17T12:00:46.548Z,6732
2017-04-17T12:01:57.926Z,6972
2017-04-17T12:03:08.955Z,7148
2017-04-17T12:04:19.988Z,9684
2017-04-17T12:05:31.019Z,14400
2017-04-17T12:06:42.056Z,12804
2017-04-17T12:07:53.352Z,20160
2017-04-17T12:09:04.582Z,57760
2017-04-17T12:10:15.609Z,51488
2017-04-17T12:11:26.643Z,34496
2017-04-17T12:12:37.687Z,27520
2017-04-17T12:13:48.726Z,21568
2017-04-17T12:14:59.775Z,19296
2017-04-17T12:16:10.813Z,17760
2017-04-17T12:17:22.066Z,16352
2017-04-17T12:18:33.156Z,14912
2017-04-17T12:19:44.392Z,13920
2017-04-17T12:20:55.423Z,15328
2017-04-17T12:22:06.502Z,14752
2017-04-17T12:23:17.539Z,14016
2017-04-17T12:24:28.587Z,13020
2017-04-17T12:25:39.832Z,12404
2017-04-17T12:26:50.874Z,12088
2017-04-17T12:28:02.385Z,11728
2017-04-17T12:29:13.418Z,10804
2017-04-17T12:30:24.457Z,10028
2017-04-17T12:31:35.494Z,9724
2017-04-17T12:32:46.747Z,9592
2017-04-17T12:33:57.853Z,9516
2017-04-17T12:35:08.890Z,9440
2017-04-17T12:36:19.920Z,9280
2017-04-17T12:37:30.964Z,9188
2017-04-17T12:38:42.012Z,9164
2017-04-17T12:39:53.049Z,9164
2017-04-17T12:41:04.106Z,9252
2017-04-17T12:42:15.140Z,9400
2017-04-17T12:43:26.172Z,9524
2017-04-17T12:44:37.248Z,9720
2017-04-17T12:45:48.364Z,10296
2017-04-17T12:46:59.402Z,6792
2017-04-17T12:48:10.441Z,7180
2017-04-17T12:49:21.495Z,7276
2017-04-17T12:50:32.540Z,7736
2017-04-17T12:51:43.780Z,8012
2017-04-17T12:52:54.817Z,9184
2017-04-17T12:54:06.004Z,8448
2017-04-17T12:55:17.414Z,8080
2017-04-17T12:56:28.471Z,7600
2017-04-17T12:57:39.626Z,7220
2017-04-17T12:58:50.672Z,7108
2017-04-17T13:00:01.719Z,6716
2017-04-17T13:01:12.760Z,6556
2017-04-17T13:02:23.795Z,6428
2017-04-17T13:03:35.035Z,6452
2017-04-17T13:04:46.077Z,6496
2017-04-17T13:05:57.360Z,6500
2017-04-17T13:07:08.593Z,6456
2017-04-17T13:08:19.634Z,6220
2017-04-17T13:09:31.074Z,5680
2017-04-17T13:10:42.117Z,4852
2017-04-17T13:11:53.146Z,3880
2017-04-17T13:13:04.171Z,2896
2017-04-17T13:14:15.204Z,2328
2017-04-17T13:15:26.242Z,2204
2017-04-17T13:16:37.327Z,2236
2017-04-17T13:17:48.355Z,2324
2017-04-17T13:18:59.392Z,2276
2017-04-17T13:20:10.429Z,2168
2017-04-17T13:21:21.866Z,1892
2017-04-17T13:22:32.893Z,1768
2017-04-17T13:23:43.942Z,1744
2017-04-17T13:24:54.966Z,1716
2017-04-17T13:26:06.199Z,1752
2017-04-17T13:27:17.478Z,2172
2017-04-17T13:28:28.511Z,2844
2017-04-17T13:29:39.544Z,3820
2017-04-17T13:30:50.563Z,4472
2017-04-17T13:32:01.592Z,4780
2017-04-17T13:33:12.622Z,5352
2017-04-17T13:34:23.656Z,6216
2017-04-17T13:35:34.694Z,7184
2017-04-17T13:36:45.930Z,8072
2017-04-17T13:37:57.213Z,9048
2017-04-17T13:39:08.461Z,9560
2017-04-17T13:40:19.497Z,9836
2017-04-17T13:41:30.736Z,10244
2017-04-17T13:42:41.764Z,10564
2017-04-17T13:43:53.217Z,11740
2017-04-17T13:45:04.242Z,11680
2017-04-17T13:46:15.275Z,11652
2017-04-17T13:47:26.333Z,11560
2017-04-17T13:48:37.653Z,11416
2017-04-17T13:49:48.692Z,11288
2017-04-17T13:50:59.723Z,10988
2017-04-17T13:52:10.772Z,10580
2017-04-17T13:53:21.802Z,10260
2017-04-17T13:54:33.075Z,10108
2017-04-17T13:55:44.111Z,10008
2017-04-17T13:56:55.349Z,9948
2017-04-17T13:58:06.383Z,9772
2017-04-17T13:59:17.673Z,9580
2017-04-17T14:00:28.707Z,9432
2017-04-17T14:01:39.749Z,9328
2017-04-17T14:02:50.775Z,9224
2017-04-17T14:04:02.016Z,9204
2017-04-17T14:05:13.468Z,9052
2017-04-17T14:06:24.478Z,8948
2017-04-17T14:07:35.504Z,8748
2017-04-17T14:08:46.755Z,8612
2017-04-17T14:09:58.035Z,8700
2017-04-17T14:11:09.275Z,10424
2017-04-17T14:12:20.307Z,12864
2017-04-17T14:13:32.027Z,13632
2017-04-17T14:14:43.244Z,12960
2017-04-17T14:15:54.526Z,5724
2017-04-17T14:17:05.572Z,6004
2017-04-17T14:18:16.600Z,9780
2017-04-17T14:19:27.625Z,11016
2017-04-17T14:20:38.665Z,5960
2017-04-17T14:21:49.700Z,6152
2017-04-17T14:23:00.946Z,6076
2017-04-17T14:24:11.980Z,5744
2017-04-17T14:25:23.080Z,5580
2017-04-17T14:26:34.334Z,5508
2017-04-17T14:27:45.564Z,5424
2017-04-17T14:28:56.614Z,5364
2017-04-17T14:30:07.650Z,5348
2017-04-17T14:31:18.680Z,5296
2017-04-17T14:32:29.707Z,5172
2017-04-17T14:33:40.746Z,5028
2017-04-17T14:34:52.194Z,6412
2017-04-17T14:36:03.676Z,7200
2017-04-17T14:37:14.711Z,6732
2017-04-17T14:38:25.743Z,6976
2017-04-17T14:39:36.779Z,5660
2017-04-17T14:40:47.800Z,7476
2017-04-17T14:41:59.098Z,7572
2017-04-17T14:43:10.336Z,6596
2017-04-17T14:44:21.378Z,5844
2017-04-17T14:45:32.412Z,5780
2017-04-17T14:46:43.436Z,6076
2017-04-17T14:47:54.474Z,5244
2017-04-17T14:49:05.507Z,4916
2017-04-17T14:50:16.545Z,4668
2017-04-17T14:51:27.582Z,4520
2017-04-17T14:52:38.679Z,4404
2017-04-17T14:53:49.712Z,4268
2017-04-17T14:55:00.744Z,4384
2017-04-17T14:56:11.774Z,4492
2017-04-17T14:57:22.807Z,4544
2017-04-17T14:58:33.844Z,5104
2017-04-17T14:59:45.290Z,6100
2017-04-17T15:00:56.322Z,6128
2017-04-17T15:02:07.363Z,6212
2017-04-17T15:03:18.445Z,6340
2017-04-17T15:04:29.678Z,6480
2017-04-17T15:05:40.709Z,6828
2017-04-17T15:06:51.749Z,7148
2017-04-17T15:08:02.790Z,7332
2017-04-17T15:09:13.920Z,6872
2017-04-17T15:10:25.156Z,5968
2017-04-17T15:11:36.175Z,5072
2017-04-17T15:12:47.222Z,4120
2017-04-17T15:13:58.716Z,3780
2017-04-17T15:15:09.753Z,3660
2017-04-17T15:16:20.783Z,3412
2017-04-17T15:17:32.008Z,3540
2017-04-17T15:18:43.062Z,3836
2017-04-17T15:19:54.141Z,4216
2017-04-17T15:21:05.377Z,4500
2017-04-17T15:22:16.408Z,5952
2017-04-17T15:23:27.432Z,5352
2017-04-17T15:24:38.471Z,6196
2017-04-17T15:25:49.509Z,6084
2017-04-17T15:27:00.540Z,7292
2017-04-17T15:28:11.572Z,6088
2017-04-17T15:29:22.813Z,7116
2017-04-17T15:30:34.037Z,7048
2017-04-17T15:31:45.128Z,6180
2017-04-17T15:32:56.163Z,7524
2017-04-17T15:34:07.199Z,7428
2017-04-17T15:35:18.228Z,7056
2017-04-17T15:36:29.654Z,6488
2017-04-17T15:37:40.884Z,6360
2017-04-17T15:38:51.916Z,4476
2017-04-17T15:40:02.953Z,3540
2017-04-17T15:41:14.427Z,2936
2017-04-17T15:42:25.667Z,2500
2017-04-17T15:43:36.846Z,2204
2017-04-17T15:44:48.077Z,2916
2017-04-17T15:45:59.508Z,2588
2017-04-17T15:47:10.535Z,2092
2017-04-17T15:48:21.775Z,1744
2017-04-17T15:49:32.802Z,1780
2017-04-17T15:50:44.047Z,1856
2017-04-17T15:51:55.123Z,1984
2017-04-17T15:53:06.151Z,2112
2017-04-17T15:54:17.402Z,2144
2017-04-17T15:55:28.422Z,2188
2017-04-17T15:56:39.449Z,2056
2017-04-17T15:57:50.479Z,1956
2017-04-17T15:59:01.726Z,2000
2017-04-17T16:00:12.957Z,2168
2017-04-17T16:01:23.985Z,2392
2017-04-17T16:02:35.025Z,2648
2017-04-17T16:03:46.066Z,3672
2017-04-17T16:04:57.092Z,4168
2017-04-17T16:06:08.333Z,4576